Time;durP1;ratioP1;P1;durP2;ratioP2;P2;SDS_P1;SDS_P2;PMS_P1;PMS_P2;Temp;Humidity;BMP_temperature;BMP_pressure;BME280_temperature;BME280_humidity;BME280_pressure;Samples;Min_cycle;Max_cycle;Signal;HPM_P1;HPM_P2
2021/09/30 00:02:08;;;;;;;3.45;0.43;;;;;;;9.38;100.00;100560.16;5093351;28;20163;-55
2021/09/30 00:05:12;;;;;;;0.65;0.35;;;;;;;9.54;100.00;100552.44;5092846;28;20126;-55
2021/09/30 00:08:15;;;;;;;0.15;0.15;;;;;;;9.56;100.00;100549.97;5093226;28;20035;-55
2021/09/30 00:11:25;;;;;;;0.15;0.15;;;;;;;9.64;100.00;100553.25;5093081;28;20568;-55
2021/09/30 00:14:40;;;;;;;0.17;0.17;;;;;;;9.64;100.00;100542.91;5093172;28;20051;-54
2021/09/30 00:18:07;;;;;;;0.98;0.98;;;;;;;9.52;100.00;100532.66;5086086;28;20566;-55
2021/09/30 00:34:48;;;;;;;1.75;0.43;;;;;;;9.36;100.00;100515.34;5061375;28;20043;-55
2021/09/30 00:48:06;;;;;;;0.85;0.30;;;;;;;9.43;100.00;100498.44;5059604;28;20134;-54
2021/09/30 00:51:19;;;;;;;0.17;0.10;;;;;;;9.40;100.00;100502.88;5060373;28;20047;-55
2021/09/30 01:20:15;;;;;;;1.10;0.77;;;;;;;9.55;100.00;100472.59;5059004;28;20188;-55
2021/09/30 01:51:58;;;;;;;0.30;0.20;;;;;;;10.30;100.00;100449.81;5058678;28;20051;-55
2021/09/30 02:24:48;;;;;;;0.40;0.40;;;;;;;10.68;100.00;100448.66;5094882;28;20126;-54
2021/09/30 02:58:09;;;;;;;0.15;0.15;;;;;;;10.70;100.00;100385.66;5094450;28;20070;-55
2021/09/30 02:58:27;;;;;;;2.00;1.27;;;;;;;10.88;100.00;100357.03;5094106;28;20036;-55
2021/09/30 03:01:33;;;;;;;0.77;0.30;;;;;;;10.86;100.00;100365.06;5094006;28;20511;-55
2021/09/30 03:04:38;;;;;;;0.30;0.28;;;;;;;10.87;100.00;100352.72;5093750;28;20113;-55
2021/09/30 03:07:42;;;;;;;2.03;0.38;;;;;;;10.92;100.00;100358.41;5094068;28;20050;-55
2021/09/30 03:10:49;;;;;;;10.50;0.65;;;;;;;10.95;100.00;100351.16;5093621;28;20437;-55
2021/09/30 03:13:55;;;;;;;0.60;0.20;;;;;;;11.02;100.00;100348.03;5093996;28;20063;-55
2021/09/30 03:17:03;;;;;;;0.30;0.30;;;;;;;11.00;100.00;100342.16;5093616;28;20127;-55
2021/09/30 03:20:26;;;;;;;0.47;0.13;;;;;;;11.00;100.00;100342.16;5094348;28;20100;-56
2021/09/30 03:23:32;;;;;;;0.10;0.10;;;;;;;11.00;100.00;100314.31;5093314;28;20109;-55
2021/09/30 03:26:36;;;;;;;2.15;0.82;;;;;;;11.03;100.00;100310.56;5093599;28;20067;-56
2021/09/30 03:29:40;;;;;;;0.13;0.13;;;;;;;11.07;100.00;100309.16;5093373;28;20071;-55
2021/09/30 03:32:43;;;;;;;0.90;0.20;;;;;;;11.10;100.00;100301.88;5093875;28;20051;-55
2021/09/30 03:35:46;;;;;;;0.15;0.15;;;;;;;11.19;100.00;100299.06;5093057;28;20503;-55
2021/09/30 03:38:49;;;;;;;2.17;0.22;;;;;;;11.16;100.00;100298.00;5093539;28;20089;-55
2021/09/30 03:41:54;;;;;;;1.65;0.57;;;;;;;11.20;100.00;100295.81;5093444;28;20131;-55
2021/09/30 03:44:56;;;;;;;1.45;0.63;;;;;;;11.16;100.00;100297.22;5093713;28;20066;-55
2021/09/30 03:48:00;;;;;;;11.25;0.57;;;;;;;11.16;100.00;100288.84;5092920;28;20035;-55
2021/09/30 03:51:10;;;;;;;1.10;0.22;;;;;;;11.14;100.00;100297.69;5093456;28;20127;-56
2021/09/30 03:57:25;;;;;;;0.57;0.57;;;;;;;11.15;100.00;100292.91;5093618;28;20051;-55
2021/09/30 04:00:28;;;;;;;0.15;0.15;;;;;;;11.14;100.00;100296.91;5091881;28;20043;-54
2021/09/30 04:03:31;;;;;;;0.22;0.20;;;;;;;11.12;100.00;100293.81;5092929;28;20515;-55
2021/09/30 04:06:34;;;;;;;0.13;0.13;;;;;;;11.10;100.00;100280.38;5092957;28;20039;-55
2021/09/30 04:09:39;;;;;;;0.40;0.30;;;;;;;11.07;100.00;100280.50;5092458;28;20058;-54
2021/09/30 04:12:41;;;;;;;0.30;0.10;;;;;;;11.06;100.00;100278.97;5092600;28;20549;-55
2021/09/30 04:15:46;;;;;;;0.30;0.30;;;;;;;11.03;100.00;100274.31;5092814;28;20526;-55
2021/09/30 04:18:49;;;;;;;0.10;0.10;;;;;;;11.04;100.00;100262.72;5092573;28;20071;-55
2021/09/30 04:21:54;;;;;;;0.10;0.10;;;;;;;11.07;100.00;100263.78;5092779;28;20070;-55
2021/09/30 04:24:56;;;;;;;0.20;0.20;;;;;;;11.09;100.00;100261.31;5092577;28;20138;-53
2021/09/30 04:27:59;;;;;;;1.45;0.73;;;;;;;11.10;100.00;100251.72;5092626;28;20043;-53
2021/09/30 04:31:02;;;;;;;0.88;0.38;;;;;;;11.08;100.00;100251.41;5092805;28;20093;-53
2021/09/30 04:34:05;;;;;;;0.20;0.20;;;;;;;11.10;100.00;100246.91;5092596;28;20046;-54
2021/09/30 04:37:08;;;;;;;0.75;0.75;;;;;;;11.15;100.00;100253.88;5092662;28;20457;-52
2021/09/30 04:40:12;;;;;;;0.20;0.15;;;;;;;11.14;100.00;100252.31;5092811;28;20126;-53
2021/09/30 04:43:15;;;;;;;0.13;0.13;;;;;;;11.14;100.00;100230.00;5092856;28;20109;-53
2021/09/30 04:46:20;;;;;;;0.30;0.30;;;;;;;11.04;100.00;100231.28;5092575;28;20047;-52
2021/09/30 04:49:23;;;;;;;0.95;0.38;;;;;;;11.08;100.00;100243.03;5092266;28;20055;-52
2021/09/30 04:52:26;;;;;;;0.20;0.20;;;;;;;11.10;100.00;100229.41;5092657;28;20117;-52
2021/09/30 04:55:29;;;;;;;3.25;0.65;;;;;;;11.15;100.00;100234.34;5092393;28;20047;-53
2021/09/30 04:58:32;;;;;;;0.10;0.10;;;;;;;11.09;100.00;100227.84;5092597;28;20115;-52
2021/09/30 05:01:36;;;;;;;1.30;0.28;;;;;;;11.10;100.00;100221.06;5092395;28;20055;-52
2021/09/30 05:04:38;;;;;;;0.75;0.50;;;;;;;11.19;100.00;100212.66;5092287;28;20135;-51
2021/09/30 05:07:41;;;;;;;0.68;0.43;;;;;;;11.15;100.00;100210.03;5092488;28;20105;-52
2021/09/30 05:10:46;;;;;;;0.52;0.20;;;;;;;11.18;100.00;100199.94;5092252;28;20059;-53
2021/09/30 05:13:53;;;;;;;2.13;1.17;;;;;;;11.19;100.00;100182.78;5092259;28;20127;-53
2021/09/30 05:16:56;;;;;;;2.10;1.00;;;;;;;11.19;100.00;100176.41;5094937;28;20066;-52
2021/09/30 05:19:59;;;;;;;7.97;1.30;;;;;;;11.24;100.00;100173.00;5095978;28;20392;-52
2021/09/30 05:23:02;;;;;;;3.85;0.90;;;;;;;11.22;100.00;100172.66;5095786;28;20097;-52
2021/09/30 05:26:06;;;;;;;1.85;0.68;;;;;;;11.26;100.00;100167.72;5095367;28;20396;-52
2021/09/30 05:29:09;;;;;;;1.17;0.47;;;;;;;11.33;100.00;100164.56;5095488;28;20085;-52
2021/09/30 05:32:12;;;;;;;6.10;0.70;;;;;;;11.38;100.00;100155.56;5096188;28;20089;-52
2021/09/30 05:35:16;;;;;;;0.95;0.73;;;;;;;11.43;100.00;100154.91;5095669;28;20383;-52
2021/09/30 05:38:19;;;;;;;0.98;0.88;;;;;;;11.47;100.00;100138.78;5094648;28;20381;-53
2021/09/30 05:41:24;;;;;;;1.98;1.08;;;;;;;11.57;100.00;100143.03;5094622;28;20093;-52
2021/09/30 05:44:29;;;;;;;3.50;0.52;;;;;;;11.57;100.00;100134.66;5095178;28;20043;-52
2021/09/30 05:47:32;;;;;;;2.75;0.63;;;;;;;11.55;100.00;100125.22;5095620;28;20384;-53
2021/09/30 05:50:35;;;;;;;7.68;1.48;;;;;;;11.59;100.00;100121.00;5095110;28;20035;-52
2021/09/30 05:53:38;;;;;;;3.28;0.98;;;;;;;11.62;100.00;100125.66;5093415;28;20055;-53
2021/09/30 05:56:41;;;;;;;11.70;1.00;;;;;;;11.60;100.00;100117.00;5093145;28;20115;-52
2021/09/30 05:59:43;;;;;;;0.35;0.35;;;;;;;11.60;100.00;100108.63;5094366;28;20043;-53
2021/09/30 06:12:42;;;;;;;5.38;0.57;;;;;;;11.64;100.00;100081.31;5089210;28;19969;-53
2021/09/30 06:15:45;;;;;;;2.85;0.30;;;;;;;11.73;100.00;100075.69;5093225;28;20043;-53
2021/09/30 06:18:48;;;;;;;3.90;0.88;;;;;;;11.72;100.00;100071.34;5094210;28;20046;-54
2021/09/30 06:21:53;;;;;;;0.50;0.50;;;;;;;11.74;100.00;100066.06;5094367;28;20097;-54
2021/09/30 06:24:56;;;;;;;1.52;1.10;;;;;;;11.78;100.00;100060.31;5094424;28;20160;-53
2021/09/30 06:27:59;;;;;;;1.38;0.65;;;;;;;11.74;100.00;100052.09;5093718;28;20157;-53
2021/09/30 06:31:03;;;;;;;0.77;0.50;;;;;;;11.79;100.00;100048.66;5093901;28;20097;-53
2021/09/30 06:34:06;;;;;;;1.10;0.65;;;;;;;11.84;100.00;100044.44;5094221;28;20120;-55
2021/09/30 06:37:10;;;;;;;4.07;0.55;;;;;;;11.84;100.00;100042.41;5093405;28;20089;-54
2021/09/30 06:40:14;;;;;;;0.77;0.40;;;;;;;11.89;100.00;100035.41;5093158;28;20555;-53
2021/09/30 06:43:16;;;;;;;2.30;0.73;;;;;;;11.84;100.00;100025.69;5093868;28;20101;-54
2021/09/30 06:46:19;;;;;;;2.70;0.82;;;;;;;11.88;100.00;100015.09;5093578;28;20081;-54
2021/09/30 06:49:23;;;;;;;13.07;1.05;;;;;;;11.91;100.00;100019.69;5093289;28;20074;-54
2021/09/30 06:52:25;;;;;;;9.23;1.05;;;;;;;11.93;100.00;100008.06;5093415;28;20060;-54
2021/09/30 06:55:28;;;;;;;3.95;0.60;;;;;;;11.96;100.00;100005.06;5092391;28;20565;-54
2021/09/30 06:58:31;;;;;;;7.03;0.93;;;;;;;11.99;100.00;99998.53;5092110;28;20071;-54
2021/09/30 07:01:38;;;;;;;1.92;1.08;;;;;;;12.02;100.00;99999.56;5092036;28;20042;-54
2021/09/30 07:04:42;;;;;;;8.07;0.68;;;;;;;12.04;100.00;100000.63;5092881;28;20097;-55
2021/09/30 07:07:45;;;;;;;0.73;0.73;;;;;;;12.09;100.00;99985.22;5093058;28;20078;-55
2021/09/30 07:10:48;;;;;;;1.45;0.75;;;;;;;12.08;100.00;99978.88;5093748;28;20140;-55
2021/09/30 07:13:51;;;;;;;1.58;0.50;;;;;;;12.09;100.00;99977.63;5093652;28;20050;-55
2021/09/30 07:16:53;;;;;;;1.85;0.30;;;;;;;12.11;100.00;99977.91;5092949;28;20043;-53
2021/09/30 07:19:58;;;;;;;0.57;0.13;;;;;;;12.11;100.00;99975.13;5092776;28;20043;-53
2021/09/30 07:23:01;;;;;;;1.05;0.50;;;;;;;12.15;100.00;99967.31;5092983;28;20093;-54
2021/09/30 07:26:07;;;;;;;1.25;0.77;;;;;;;12.14;100.00;99965.03;5093073;28;20503;-54
2021/09/30 07:29:10;;;;;;;5.35;0.57;;;;;;;12.13;100.00;99964.25;5092948;28;20441;-54
2021/09/30 07:32:13;;;;;;;0.40;0.30;;;;;;;12.21;100.00;99961.84;5093493;28;20086;-53
2021/09/30 07:35:15;;;;;;;1.05;0.63;;;;;;;12.23;100.00;99944.59;5093325;28;20097;-55
2021/09/30 07:38:20;;;;;;;0.98;0.30;;;;;;;12.21;100.00;99936.72;5093125;28;20050;-54
2021/09/30 07:41:23;;;;;;;7.43;0.63;;;;;;;12.26;100.00;99940.84;5093293;28;20047;-55
2021/09/30 07:44:26;;;;;;;1.95;0.20;;;;;;;12.30;100.00;99933.03;5093178;28;20058;-55
2021/09/30 07:47:29;;;;;;;4.18;0.30;;;;;;;12.36;100.00;99919.91;5093108;28;20431;-55
2021/09/30 07:50:32;;;;;;;2.05;0.38;;;;;;;12.43;100.00;99923.06;5093330;28;20051;-55
2021/09/30 07:53:36;;;;;;;4.50;0.57;;;;;;;12.46;100.00;99921.31;5093338;28;20100;-55
2021/09/30 07:56:41;;;;;;;7.35;0.93;;;;;;;12.50;100.00;99907.91;5093149;28;20085;-55
2021/09/30 07:59:44;;;;;;;1.38;0.52;;;;;;;12.50;100.00;99907.91;5093303;28;20078;-55
2021/09/30 08:02:47;;;;;;;1.95;0.45;;;;;;;12.53;100.00;99915.31;5093131;28;20043;-56
2021/09/30 08:05:50;;;;;;;0.20;0.20;;;;;;;12.54;100.00;99908.50;5092284;28;20066;-55
2021/09/30 08:08:54;;;;;;;1.15;0.82;;;;;;;12.60;100.00;99926.09;5092338;28;20046;-55
2021/09/30 08:11:58;;;;;;;0.20;0.10;;;;;;;12.65;100.00;99919.78;5092552;28;20059;-55
2021/09/30 08:15:00;;;;;;;0.15;0.13;;;;;;;12.71;100.00;99912.28;5092776;28;20454;-55
2021/09/30 08:18:04;;;;;;;0.90;0.82;;;;;;;12.75;100.00;99901.66;5092907;28;20047;-55
2021/09/30 08:21:12;;;;;;;0.30;0.20;;;;;;;12.95;100.00;99890.44;5092936;28;20478;-55
2021/09/30 08:24:17;;;;;;;0.93;0.50;;;;;;;12.96;100.00;99883.59;5092826;28;20054;-54
2021/09/30 08:27:20;;;;;;;0.20;0.20;;;;;;;12.98;100.00;99875.50;5091902;28;20085;-56
2021/09/30 08:30:23;;;;;;;0.70;0.63;;;;;;;13.03;100.00;99860.81;5093028;28;20043;-55
2021/09/30 08:33:26;;;;;;;0.30;0.30;;;;;;;13.05;100.00;99872.31;5092647;28;20062;-56
2021/09/30 08:36:30;;;;;;;2.38;0.55;;;;;;;13.06;100.00;99859.84;5093212;28;20055;-55
2021/09/30 08:39:33;;;;;;;0.20;0.20;;;;;;;13.10;100.00;99854.84;5092644;28;20058;-55
2021/09/30 08:42:36;;;;;;;2.33;0.90;;;;;;;13.11;100.00;99867.53;5092531;28;20044;-57
2021/09/30 08:45:39;;;;;;;0.47;0.20;;;;;;;13.19;100.00;99845.50;5092643;28;20047;-54
2021/09/30 08:48:43;;;;;;;0.43;0.30;;;;;;;13.17;100.00;99850.81;5092609;28;20047;-55
2021/09/30 08:51:46;;;;;;;0.80;0.20;;;;;;;13.16;100.00;99838.09;5095616;28;20046;-56
2021/09/30 08:54:50;;;;;;;0.63;0.20;;;;;;;13.24;100.00;99830.78;5096443;28;20047;-57
2021/09/30 08:57:53;;;;;;;0.82;0.80;;;;;;;13.21;100.00;99831.81;5096373;28;20612;-56
2021/09/30 09:01:00;;;;;;;0.10;0.10;;;;;;;13.27;100.00;99835.41;5096749;28;20049;-56
2021/09/30 09:04:16;;;;;;;1.10;0.20;;;;;;;13.31;100.00;99842.31;5096342;28;20043;-58
2021/09/30 09:07:24;;;;;;;0.20;0.10;;;;;;;13.37;100.00;99831.94;5096653;28;20058;-56
2021/09/30 09:10:39;;;;;;;0.73;0.50;;;;;;;13.39;100.00;99832.22;5095920;28;20551;-56
2021/09/30 09:13:42;;;;;;;1.17;0.17;;;;;;;13.41;100.00;99826.88;5096115;28;20085;-57
2021/09/30 09:17:11;;;;;;;7.63;1.02;;;;;;;13.41;100.00;99824.09;5095759;28;20043;-57
2021/09/30 09:20:18;;;;;;;1.95;0.63;;;;;;;13.53;100.00;99822.94;5096573;28;20046;-57
2021/09/30 09:23:21;;;;;;;0.47;0.38;;;;;;;13.59;100.00;99815.34;5095147;28;20101;-54
2021/09/30 09:26:34;;;;;;;1.05;0.50;;;;;;;13.78;100.00;99823.34;5095980;28;20070;-54
2021/09/30 09:29:37;;;;;;;2.97;0.75;;;;;;;13.81;100.00;99805.56;5095191;28;20087;-54
2021/09/30 09:33:09;;;;;;;0.20;0.13;;;;;;;13.72;100.00;99820.53;5095799;28;20105;-54
2021/09/30 09:36:24;;;;;;;4.28;0.60;;;;;;;13.80;100.00;99816.00;5095897;28;20553;-57
2021/09/30 09:39:35;;;;;;;2.17;0.35;;;;;;;13.85;100.00;99803.31;5095310;28;20431;-55
2021/09/30 09:42:38;;;;;;;0.35;0.20;;;;;;;13.93;100.00;99804.38;5095449;28;20047;-56
2021/09/30 09:45:47;;;;;;;1.25;0.73;;;;;;;13.94;100.00;99795.50;5095404;28;20059;-55
2021/09/30 09:48:58;;;;;;;1.15;0.57;;;;;;;13.96;100.00;99795.75;5095769;28;20442;-55
2021/09/30 09:52:02;;;;;;;3.73;1.07;;;;;;;13.91;100.00;99793.66;5095736;28;20120;-48
2021/09/30 09:55:36;;;;;;;0.63;0.40;;;;;;;13.97;100.00;99791.66;5095136;28;20412;-48
2021/09/30 09:58:47;;;;;;;14.93;1.20;;;;;;;14.06;100.00;99793.50;5094940;28;20146;-48
2021/09/30 10:01:50;;;;;;;8.47;0.50;;;;;;;14.17;100.00;99774.72;5095231;28;20047;-48
2021/09/30 10:04:53;;;;;;;0.43;0.30;;;;;;;14.32;100.00;99777.34;5095323;28;20310;-48
2021/09/30 10:07:56;;;;;;;3.80;0.40;;;;;;;14.51;100.00;99770.03;5094736;28;20125;-48
2021/09/30 10:10:59;;;;;;;4.57;0.47;;;;;;;14.75;100.00;99752.81;5095022;28;20097;-48
2021/09/30 10:14:05;;;;;;;3.65;0.38;;;;;;;14.99;100.00;99737.00;5095233;28;20078;-48
2021/09/30 10:17:08;;;;;;;2.00;0.50;;;;;;;15.01;100.00;99734.47;5095100;28;20482;-48
2021/09/30 10:20:12;;;;;;;0.25;0.17;;;;;;;15.30;100.00;99738.03;5094801;28;20117;-48
2021/09/30 10:23:22;;;;;;;8.95;0.52;;;;;;;15.45;100.00;99730.16;5095064;28;20054;-48
2021/09/30 10:26:34;;;;;;;2.72;0.47;;;;;;;15.52;100.00;99724.03;5093995;28;20051;-48
2021/09/30 10:29:45;;;;;;;0.32;0.28;;;;;;;15.55;100.00;99712.53;5094690;28;20043;-48
2021/09/30 10:32:50;;;;;;;3.30;0.43;;;;;;;15.81;100.00;99704.56;5093973;28;20146;-48
2021/09/30 10:35:54;;;;;;;0.10;0.10;;;;;;;16.00;100.00;99704.75;5094691;28;20046;-48
2021/09/30 10:39:23;;;;;;;0.10;0.10;;;;;;;16.06;100.00;99680.22;5094591;28;20043;-48
2021/09/30 10:42:45;;;;;;;0.45;0.10;;;;;;;16.20;100.00;99686.81;5094239;28;20124;-48
2021/09/30 10:45:49;;;;;;;1.17;0.10;;;;;;;16.37;100.00;99667.81;5094650;28;20526;-48
2021/09/30 10:48:55;;;;;;;0.50;0.40;;;;;;;16.42;100.00;99661.38;5094254;28;20051;-48
2021/09/30 10:52:29;;;;;;;0.32;0.17;;;;;;;16.64;100.00;99650.78;5094674;28;20051;-48
2021/09/30 10:55:33;;;;;;;1.45;0.45;;;;;;;16.85;100.00;99634.25;5093805;28;20043;-48
2021/09/30 10:58:36;;;;;;;0.17;0.17;;;;;;;16.82;100.00;99634.53;5093826;28;20384;-48
2021/09/30 11:01:45;;;;;;;0.20;0.10;;;;;;;16.88;100.00;99624.00;5094182;28;20051;-48
2021/09/30 11:05:08;;;;;;;1.20;0.20;;;;;;;17.15;100.00;99628.63;5094642;28;20051;-48
2021/09/30 11:08:25;;;;;;;1.02;0.15;;;;;;;17.27;100.00;99613.91;5094339;28;20047;-47
2021/09/30 11:11:30;;;;;;;0.10;0.10;;;;;;;17.40;100.00;99604.81;5094353;28;20131;-48
2021/09/30 11:14:33;;;;;;;1.40;0.28;;;;;;;17.49;100.00;99601.63;5093389;28;20050;-48
2021/09/30 11:17:40;;;;;;;0.20;0.10;;;;;;;17.49;100.00;99601.63;5093088;28;20079;-48
2021/09/30 11:20:43;;;;;;;0.20;0.20;;;;;;;17.58;100.00;99592.09;5093404;28;20101;-48
2021/09/30 11:23:51;;;;;;;0.10;0.10;;;;;;;17.61;100.00;99577.72;5094340;28;20105;-48
2021/09/30 11:26:54;;;;;;;0.10;0.10;;;;;;;17.62;100.00;99576.44;5093925;28;20089;-48
2021/09/30 11:30:16;;;;;;;1.35;0.20;;;;;;;17.60;100.00;99569.78;5093536;28;20096;-48
2021/09/30 11:33:19;;;;;;;0.10;0.10;;;;;;;17.64;100.00;99567.44;5093777;28;20056;-48
2021/09/30 11:36:30;;;;;;;0.10;0.10;;;;;;;17.82;100.00;99561.81;5093497;28;20446;-47
2021/09/30 11:39:34;;;;;;;0.10;0.00;;;;;;;18.07;100.00;99546.34;5093290;28;20046;-48
2021/09/30 11:42:47;;;;;;;0.00;0.00;;;;;;;18.06;100.00;99563.81;5093511;28;20391;-48
2021/09/30 11:45:50;;;;;;;0.10;0.10;;;;;;;18.18;100.00;99546.19;5093312;28;20392;-48
2021/09/30 11:49:01;;;;;;;1.40;0.17;;;;;;;18.22;100.00;99542.28;5093393;28;20154;-48
2021/09/30 11:52:11;;;;;;;0.20;0.20;;;;;;;18.14;100.00;99531.66;5093354;28;20100;-48
2021/09/30 11:55:16;;;;;;;0.20;0.03;;;;;;;18.14;100.00;99522.44;5093052;28;20127;-48
2021/09/30 11:58:20;;;;;;;0.55;0.17;;;;;;;18.26;100.00;99520.22;5092730;28;20055;-48
2021/09/30 12:01:34;;;;;;;1.85;0.03;;;;;;;18.17;100.00;99513.66;5092940;28;20046;-48
2021/09/30 12:07:46;;;;;;;0.20;0.10;;;;;;;18.31;100.00;99510.88;5093164;28;20456;-47
2021/09/30 12:10:58;;;;;;;0.22;0.08;;;;;;;18.40;100.00;99496.38;5092673;28;20039;-48
2021/09/30 12:14:03;;;;;;;0.63;0.10;;;;;;;18.38;100.00;99502.56;5092887;28;20051;-48
2021/09/30 12:17:12;;;;;;;0.30;0.20;;;;;;;18.31;100.00;99505.25;5092759;28;20132;-48
2021/09/30 12:20:17;;;;;;;0.80;0.20;;;;;;;18.28;100.00;99495.78;5093028;28;20043;-48
2021/09/30 12:23:20;;;;;;;2.80;0.20;;;;;;;18.21;100.00;99504.91;5092895;28;20090;-48
2021/09/30 12:26:23;;;;;;;0.20;0.10;;;;;;;18.08;100.00;99494.31;5097083;28;20070;-48
2021/09/30 12:29:27;;;;;;;0.55;0.17;;;;;;;18.11;100.00;99493.25;5096690;28;20039;-48
2021/09/30 12:32:33;;;;;;;0.30;0.30;;;;;;;18.07;100.00;99492.81;5096401;28;20579;-48
2021/09/30 12:35:41;;;;;;;0.10;0.00;;;;;;;18.07;100.00;99487.16;5097066;28;20537;-48
2021/09/30 12:39:01;;;;;;;0.00;0.00;;;;;;;18.08;100.00;99483.03;5096973;28;20043;-48
2021/09/30 12:42:16;;;;;;;0.10;0.10;;;;;;;18.05;100.00;99478.50;5097108;28;20043;-48
2021/09/30 12:45:19;;;;;;;1.85;0.10;;;;;;;17.96;100.00;99478.88;5096570;28;20062;-48
2021/09/30 12:48:25;;;;;;;2.55;0.20;;;;;;;18.02;100.00;99479.56;5096682;28;20088;-48
2021/09/30 12:51:28;;;;;;;1.40;0.10;;;;;;;18.14;100.00;99475.28;5096488;28;20054;-48
2021/09/30 12:54:32;;;;;;;1.75;0.32;;;;;;;18.00;100.00;99462.44;5096398;28;20043;-48
2021/09/30 12:57:36;;;;;;;0.63;0.22;;;;;;;17.99;100.00;99457.34;5095506;28;20148;-48
2021/09/30 13:00:39;;;;;;;0.10;0.10;;;;;;;18.04;100.00;99454.41;5096552;28;20383;-48
2021/09/30 13:03:42;;;;;;;0.32;0.10;;;;;;;18.06;100.00;99449.00;5096633;28;20105;-48
2021/09/30 13:06:48;;;;;;;0.82;0.15;;;;;;;18.04;100.00;99443.16;5096475;28;20051;-48
2021/09/30 13:10:04;;;;;;;1.30;0.10;;;;;;;17.99;100.00;99438.38;5095978;28;20063;-48
2021/09/30 13:13:15;;;;;;;0.10;0.10;;;;;;;18.02;100.00;99439.34;5096447;28;20051;-48
2021/09/30 13:16:23;;;;;;;3.92;0.22;;;;;;;18.10;100.00;99417.69;5096029;28;20079;-48
2021/09/30 13:19:44;;;;;;;0.38;0.10;;;;;;;18.07;100.00;99418.78;5096112;28;20090;-48
2021/09/30 13:22:48;;;;;;;0.20;0.20;;;;;;;18.14;100.00;99409.69;5095633;28;20055;-48
2021/09/30 13:25:52;;;;;;;0.55;0.20;;;;;;;18.15;100.00;99397.09;5095867;28;20160;-48
2021/09/30 13:28:55;;;;;;;0.10;0.00;;;;;;;18.17;100.00;99405.78;5095661;28;20135;-48
2021/09/30 13:31:59;;;;;;;0.80;0.20;;;;;;;18.18;100.00;99393.97;5095870;28;20076;-48
2021/09/30 13:35:04;;;;;;;0.28;0.28;;;;;;;18.19;100.00;99387.03;5093533;28;20105;-48
2021/09/30 13:38:07;;;;;;;0.10;0.00;;;;;;;18.22;100.00;99385.19;5094199;28;20097;-48
2021/09/30 13:41:10;;;;;;;0.20;0.20;;;;;;;18.30;100.00;99385.34;5092464;28;20173;-49
2021/09/30 13:44:13;;;;;;;0.30;0.10;;;;;;;18.39;100.00;99374.38;5093308;28;20073;-49
2021/09/30 13:47:17;;;;;;;2.50;0.20;;;;;;;18.46;100.00;99373.75;5093192;28;20163;-49
2021/09/30 13:50:24;;;;;;;0.57;0.30;;;;;;;18.48;100.00;99367.56;5093177;28;20047;-47
2021/09/30 13:53:27;;;;;;;0.00;0.00;;;;;;;18.58;100.00;99365.84;5081599;28;20447;-54
2021/09/30 13:56:31;;;;;;;2.78;0.25;;;;;;;18.56;100.00;99360.00;5095426;28;20054;-53
2021/09/30 13:59:34;;;;;;;1.50;0.50;;;;;;;18.53;100.00;99359.03;5094287;28;20130;-53
2021/09/30 14:02:38;;;;;;;0.00;0.00;;;;;;;18.51;100.00;99356.00;5095132;28;20079;-53
2021/09/30 14:05:41;;;;;;;0.10;0.00;;;;;;;18.40;100.00;99355.41;5095010;28;20537;-52
2021/09/30 14:08:46;;;;;;;1.15;0.10;;;;;;;18.31;100.00;99342.50;5094418;28;20039;-53
2021/09/30 14:11:49;;;;;;;0.30;0.00;;;;;;;18.22;100.00;99339.34;5092517;28;20055;-53
2021/09/30 14:14:54;;;;;;;0.08;0.00;;;;;;;18.04;100.00;99341.69;5093096;28;20066;-54
2021/09/30 14:17:57;;;;;;;0.80;0.10;;;;;;;17.98;100.00;99326.94;5092394;28;20055;-53
2021/09/30 14:21:01;;;;;;;0.00;0.00;;;;;;;17.99;100.00;99320.03;5094008;28;20141;-53
2021/09/30 14:24:04;;;;;;;0.05;0.00;;;;;;;17.94;100.00;99320.88;5094402;28;20108;-55
2021/09/30 14:27:07;;;;;;;1.40;0.20;;;;;;;18.02;100.00;99316.13;5094857;28;20038;-52
2021/09/30 14:30:11;;;;;;;0.10;0.00;;;;;;;17.99;100.00;99314.41;5094282;28;20483;-55
2021/09/30 14:33:14;;;;;;;0.10;0.00;;;;;;;17.94;100.00;99318.06;5093921;28;20099;-52
2021/09/30 14:36:17;;;;;;;0.22;0.10;;;;;;;17.87;100.00;99304.59;5094512;28;20408;-55
2021/09/30 14:39:20;;;;;;;1.55;0.57;;;;;;;17.90;100.00;99297.16;5094810;28;20086;-57
2021/09/30 14:42:23;;;;;;;0.35;0.13;;;;;;;17.87;100.00;99287.72;5094513;28;20145;-55
2021/09/30 14:45:26;;;;;;;0.32;0.10;;;;;;;17.98;100.00;99293.16;5093909;28;20093;-56
2021/09/30 14:48:29;;;;;;;0.22;0.20;;;;;;;18.09;100.00;99278.09;5093067;28;20507;-55
2021/09/30 14:51:32;;;;;;;0.30;0.30;;;;;;;18.10;100.00;99276.78;5094369;28;20050;-56
2021/09/30 14:54:35;;;;;;;0.20;0.10;;;;;;;18.16;100.00;99275.38;5094608;28;20070;-54
2021/09/30 14:57:38;;;;;;;0.10;0.10;;;;;;;18.19;100.00;99271.47;5094424;28;20046;-52
2021/09/30 15:00:42;;;;;;;0.47;0.28;;;;;;;18.26;100.00;99283.41;5093588;28;20044;-54
2021/09/30 15:03:45;;;;;;;0.30;0.10;;;;;;;18.29;100.00;99265.41;5093835;28;20050;-54
2021/09/30 15:06:49;;;;;;;0.28;0.10;;;;;;;18.31;100.00;99271.25;5094120;28;20039;-53
2021/09/30 15:09:52;;;;;;;0.30;0.20;;;;;;;18.29;100.00;99265.41;5093904;28;20519;-53
2021/09/30 15:12:55;;;;;;;0.93;0.38;;;;;;;18.28;100.00;99258.25;5093730;28;20082;-53
2021/09/30 15:15:59;;;;;;;0.20;0.20;;;;;;;18.37;100.00;99266.25;5093797;28;20491;-53
2021/09/30 15:19:26;;;;;;;0.20;0.08;;;;;;;18.22;100.00;99263.22;5093155;28;20136;-57
2021/09/30 15:22:28;;;;;;;0.10;0.00;;;;;;;17.97;100.00;99263.47;5093745;28;20097;-55
2021/09/30 15:25:36;;;;;;;0.00;0.00;;;;;;;17.75;100.00;99249.03;5093424;28;20530;-55
2021/09/30 15:28:39;;;;;;;2.40;0.10;;;;;;;17.79;100.00;99255.84;5072249;28;20044;-57
2021/09/30 15:31:42;;;;;;;0.10;0.03;;;;;;;17.78;100.00;99243.06;5073191;28;20047;-58
2021/09/30 15:34:45;;;;;;;0.75;0.10;;;;;;;17.70;100.00;99261.91;5073408;28;20051;-57
2021/09/30 15:37:48;;;;;;;0.20;0.15;;;;;;;17.69;100.00;99260.41;5073256;28;20099;-57
2021/09/30 15:40:53;;;;;;;0.13;0.00;;;;;;;17.66;100.00;99271.97;5073030;28;20123;-58
2021/09/30 15:43:56;;;;;;;0.10;0.03;;;;;;;17.63;100.00;99267.44;5073331;28;20077;-56
2021/09/30 15:46:59;;;;;;;0.38;0.10;;;;;;;17.56;100.00;99305.41;5073113;28;20071;-56
2021/09/30 15:50:03;;;;;;;0.45;0.20;;;;;;;17.61;100.00;99287.66;5095809;28;20036;-57
2021/09/30 15:53:06;;;;;;;0.68;0.10;;;;;;;17.64;100.00;99289.41;5073054;28;20046;-57
2021/09/30 15:56:13;;;;;;;0.45;0.10;;;;;;;17.60;100.00;99285.38;5072944;28;20105;-55
2021/09/30 15:59:16;;;;;;;0.00;0.00;;;;;;;17.59;100.00;99293.06;5072605;28;20047;-55
2021/09/30 16:02:18;;;;;;;0.10;0.08;;;;;;;17.49;100.00;99291.16;5072753;28;20554;-55
2021/09/30 16:05:21;;;;;;;0.15;0.03;;;;;;;17.51;100.00;99288.59;5072763;28;20510;-56
2021/09/30 16:08:24;;;;;;;0.32;0.28;;;;;;;17.37;100.00;99296.97;5079053;28;20054;-55
2021/09/30 16:11:30;;;;;;;0.30;0.10;;;;;;;17.27;100.00;99292.28;5092733;28;20083;-55
2021/09/30 16:14:34;;;;;;;0.13;0.13;;;;;;;17.23;100.00;99300.28;5091959;28;20047;-57
2021/09/30 16:17:39;;;;;;;0.10;0.00;;;;;;;17.26;100.00;99299.22;5091868;28;20055;-57
2021/09/30 16:20:44;;;;;;;2.78;0.10;;;;;;;16.84;100.00;99306.47;5092416;28;20044;-58
2021/09/30 16:23:47;;;;;;;0.10;0.10;;;;;;;16.68;100.00;99299.75;5092666;28;20047;-59
2021/09/30 16:26:52;;;;;;;0.25;0.20;;;;;;;16.60;100.00;99304.47;5092200;28;20047;-57
2021/09/30 16:29:55;;;;;;;0.10;0.00;;;;;;;16.53;100.00;99304.31;5092659;28;20043;-57
2021/09/30 16:33:00;;;;;;;0.70;0.28;;;;;;;16.42;100.00;99291.13;5092953;28;20051;-58
2021/09/30 16:36:03;;;;;;;0.10;0.10;;;;;;;16.33;100.00;99308.34;5092779;28;20062;-57
2021/09/30 16:39:06;;;;;;;2.35;0.15;;;;;;;16.24;100.00;99297.44;5092644;28;20210;-57
2021/09/30 16:42:09;;;;;;;0.98;0.10;;;;;;;16.12;100.00;99298.88;5092764;28;20069;-57
2021/09/30 16:45:12;;;;;;;7.25;0.57;;;;;;;16.08;100.00;99308.88;5092875;28;20048;-56
2021/09/30 16:48:15;;;;;;;1.70;0.30;;;;;;;16.02;100.00;99317.38;5092732;28;20057;-57
2021/09/30 16:51:18;;;;;;;0.52;0.25;;;;;;;15.92;100.00;99324.59;5092474;28;20047;-56